createdAt,value
2022-08-03T00:00:41.913Z,71.21
2022-08-03T00:03:10.608Z,71.63
2022-08-03T00:05:39.255Z,72.15
2022-08-03T00:08:08.141Z,72.18
2022-08-03T00:10:37.333Z,72.21
2022-08-03T00:13:05.896Z,73.00
2022-08-03T00:15:34.549Z,73.38
2022-08-03T00:18:05.631Z,73.61
2022-08-03T00:20:34.144Z,73.39
2022-08-03T00:23:02.844Z,73.76
2022-08-03T00:25:31.845Z,74.21
2022-08-03T00:28:00.415Z,73.65
2022-08-03T00:30:30.767Z,74.55
2022-08-03T00:33:00.070Z,74.29
2022-08-03T00:35:50.028Z,74.00
2022-08-03T00:38:19.011Z,74.40
2022-08-03T00:40:48.054Z,74.29
2022-08-03T00:43:16.729Z,74.74
2022-08-03T00:45:45.425Z,74.80
2022-08-03T00:48:19.536Z,74.01
2022-08-03T00:51:01.800Z,73.89
2022-08-03T00:53:31.011Z,74.56
2022-08-03T00:56:00.194Z,74.32
2022-08-03T00:58:28.762Z,74.72
2022-08-03T01:00:57.258Z,74.58
2022-08-03T01:03:25.621Z,74.75
2022-08-03T01:06:07.141Z,74.67
2022-08-03T01:08:48.614Z,73.68
2022-08-03T01:12:00.501Z,74.50
2022-08-03T01:14:39.302Z,70.52
2022-08-03T01:17:44.725Z,67.65
2022-08-03T01:20:17.787Z,63.59
2022-08-03T01:23:16.324Z,62.15
2022-08-03T01:25:47.322Z,60.27
2022-08-03T01:28:59.835Z,59.57
2022-08-03T01:32:51.737Z,58.31
2022-08-03T01:34:35.833Z,59.44
2022-08-03T01:37:08.337Z,59.78
2022-08-03T01:39:39.474Z,60.79
2022-08-03T01:42:09.742Z,61.57
2022-08-03T01:44:42.663Z,61.94
2022-08-03T01:47:13.528Z,61.81
2022-08-03T01:49:46.183Z,62.04
2022-08-03T01:52:18.339Z,61.51
2022-08-03T01:54:50.971Z,60.54
2022-08-03T01:57:20.864Z,60.78
2022-08-03T01:59:51.856Z,61.11
2022-08-03T02:02:32.813Z,60.37
2022-08-03T02:05:05.387Z,60.61
2022-08-03T02:07:41.723Z,60.69
2022-08-03T02:10:12.945Z,61.16
2022-08-03T02:12:45.906Z,61.68
2022-08-03T02:15:17.010Z,61.09
2022-08-03T02:17:48.061Z,60.25
2022-08-03T02:20:17.800Z,59.10
2022-08-03T02:22:47.766Z,59.42
2022-08-03T02:25:17.232Z,59.18
2022-08-03T02:28:07.517Z,59.46
2022-08-03T02:30:39.992Z,59.75
2022-08-03T02:33:17.839Z,60.59
2022-08-03T02:35:48.094Z,60.04
2022-08-03T02:38:20.216Z,60.01
2022-08-03T02:40:52.202Z,60.05
2022-08-03T02:43:24.825Z,60.42
2022-08-03T02:45:55.253Z,59.66
2022-08-03T02:48:31.712Z,59.38
2022-08-03T02:51:03.478Z,59.15
2022-08-03T02:53:33.096Z,59.39
2022-08-03T02:56:04.736Z,59.04
2022-08-03T02:58:34.969Z,58.64
2022-08-03T03:01:04.383Z,58.32
2022-08-03T03:03:39.282Z,58.54
2022-08-03T03:06:14.233Z,57.60
2022-08-03T03:08:44.617Z,57.50
2022-08-03T03:11:16.785Z,56.43
2022-08-03T03:13:47.411Z,56.53
2022-08-03T03:16:16.953Z,57.13
2022-08-03T03:18:47.471Z,57.13
2022-08-03T03:21:19.378Z,57.54
2022-08-03T03:23:49.588Z,56.87
2022-08-03T03:26:18.652Z,55.25
2022-08-03T03:28:47.897Z,54.04
2022-08-03T03:31:16.795Z,54.56
2022-08-03T03:33:45.813Z,54.83
2022-08-03T03:36:14.455Z,55.06
2022-08-03T03:38:43.296Z,55.09
2022-08-03T03:41:12.241Z,55.52
2022-08-03T03:43:40.851Z,55.10
2022-08-03T03:46:09.513Z,53.96
2022-08-03T03:48:38.158Z,53.86
2022-08-03T03:51:10.889Z,54.36
2022-08-03T03:53:39.513Z,55.27
2022-08-03T03:56:08.290Z,54.12
2022-08-03T03:58:36.810Z,56.32
2022-08-03T04:01:05.523Z,55.48
2022-08-03T04:03:34.193Z,56.07
2022-08-03T04:06:21.104Z,55.18
2022-08-03T04:09:08.481Z,54.02
2022-08-03T04:11:48.682Z,54.07
2022-08-03T04:14:36.886Z,53.49
2022-08-03T04:17:12.223Z,52.85
2022-08-03T04:19:48.358Z,51.96
2022-08-03T04:22:21.077Z,52.24
2022-08-03T04:24:58.341Z,53.10
2022-08-03T04:27:29.800Z,53.03
2022-08-03T04:30:00.466Z,53.13
2022-08-03T04:32:30.649Z,52.01
2022-08-03T04:34:59.660Z,50.45
2022-08-03T04:37:39.282Z,51.20
2022-08-03T04:40:12.220Z,49.47
2022-08-03T04:42:43.083Z,50.50
2022-08-03T04:45:16.913Z,48.83
2022-08-03T04:47:46.005Z,49.70
2022-08-03T04:50:19.435Z,50.22
2022-08-03T04:53:07.149Z,49.50
2022-08-03T04:55:38.358Z,48.92
2022-08-03T04:58:07.028Z,50.12
2022-08-03T05:00:35.708Z,49.60
2022-08-03T05:03:04.246Z,48.22
2022-08-03T05:05:50.555Z,49.87
2022-08-03T05:08:20.649Z,47.85
2022-08-03T05:10:59.172Z,47.54
2022-08-03T05:13:28.436Z,47.61
2022-08-03T05:15:57.152Z,48.73
2022-08-03T05:18:26.011Z,47.53
2022-08-03T05:20:54.582Z,47.45
2022-08-03T05:23:23.352Z,46.43
2022-08-03T05:25:51.998Z,46.94
2022-08-03T05:28:20.770Z,47.84
2022-08-03T05:30:49.346Z,47.88
2022-08-03T05:33:18.026Z,46.44
2022-08-03T05:35:57.218Z,47.24
2022-08-03T05:38:35.024Z,46.50
2022-08-03T05:41:20.990Z,47.31
2022-08-03T05:43:56.221Z,47.34
2022-08-03T05:46:24.753Z,46.99
2022-08-03T05:48:53.540Z,46.07
2022-08-03T05:51:22.215Z,46.87
2022-08-03T05:53:50.914Z,45.84
2022-08-03T05:56:24.942Z,44.70
2022-08-03T05:58:54.136Z,44.57
2022-08-03T06:01:23.399Z,44.79
2022-08-03T06:03:52.986Z,45.43
2022-08-03T06:06:21.616Z,45.52
2022-08-03T06:08:50.651Z,45.02
2022-08-03T06:11:19.595Z,45.17
2022-08-03T06:13:48.201Z,43.88
2022-08-03T06:16:16.841Z,46.83
2022-08-03T06:18:45.272Z,45.45
2022-08-03T06:21:14.240Z,44.77
2022-08-03T06:23:54.953Z,44.60
2022-08-03T06:26:28.407Z,44.03
2022-08-03T06:28:57.199Z,43.62
2022-08-03T06:31:32.640Z,43.78
2022-08-03T06:34:35.003Z,44.05
2022-08-03T06:37:01.416Z,43.19
2022-08-03T06:39:31.318Z,43.69
2022-08-03T06:41:59.915Z,44.59
2022-08-03T06:44:28.605Z,44.97
2022-08-03T06:46:57.463Z,43.81
2022-08-03T06:49:26.139Z,42.52
2022-08-03T06:52:05.602Z,43.79
2022-08-03T06:54:35.745Z,43.04
2022-08-03T06:57:05.084Z,41.88
2022-08-03T07:00:09.498Z,42.94
2022-08-03T07:02:22.594Z,41.82
2022-08-03T07:04:51.446Z,43.51
2022-08-03T07:07:21.200Z,43.90
2022-08-03T07:48:30.462Z,42.57
2022-08-03T07:50:59.114Z,41.42
2022-08-03T07:53:28.059Z,41.45
2022-08-03T07:56:17.481Z,41.98
2022-08-03T07:58:48.921Z,41.38
2022-08-03T08:01:17.968Z,41.97
2022-08-03T08:03:52.621Z,41.24
2022-08-03T08:06:23.394Z,42.96
2022-08-03T08:08:52.073Z,41.34
2022-08-03T08:11:22.976Z,41.42
2022-08-03T08:13:51.695Z,41.03
2022-08-03T08:16:20.577Z,42.44
2022-08-03T08:18:49.346Z,41.99
2022-08-03T08:21:18.034Z,42.42
2022-08-03T08:23:56.863Z,42.48
2022-08-03T08:26:29.044Z,42.05
2022-08-03T08:28:57.765Z,41.36
2022-08-03T08:31:26.598Z,41.16
2022-08-03T08:34:04.105Z,41.92
2022-08-03T08:36:34.817Z,42.08
2022-08-03T08:39:03.630Z,41.99
2022-08-03T08:41:35.393Z,41.75
2022-08-03T08:44:04.299Z,41.76
2022-08-03T08:46:34.169Z,40.91
2022-08-03T08:49:03.802Z,40.63
2022-08-03T08:51:54.795Z,41.24
2022-08-03T08:54:27.843Z,41.21
2022-08-03T08:57:00.028Z,41.56
2022-08-03T08:59:48.839Z,41.81
2022-08-03T09:02:18.090Z,40.47
2022-08-03T09:04:49.507Z,41.88
2022-08-03T09:07:20.419Z,41.60
2022-08-03T09:10:05.957Z,41.72
2022-08-03T09:12:47.521Z,41.04
2022-08-03T09:15:26.734Z,40.87
2022-08-03T09:17:57.783Z,40.81
2022-08-03T09:20:31.579Z,42.56
2022-08-03T09:23:01.396Z,40.71
2022-08-03T09:25:37.564Z,40.48
2022-08-03T09:28:52.862Z,40.73
2022-08-03T09:31:10.409Z,41.26
2022-08-03T09:33:50.294Z,41.62
2022-08-03T09:36:39.117Z,41.51
2022-08-03T09:39:16.068Z,41.44
2022-08-03T09:41:56.150Z,42.16
2022-08-03T09:44:36.640Z,41.20
2022-08-03T09:47:07.039Z,40.87
2022-08-03T09:49:36.026Z,40.36
2022-08-03T09:52:38.428Z,40.76
2022-08-03T09:56:32.576Z,41.20
2022-08-03T09:58:09.930Z,39.39
2022-08-03T10:01:01.282Z,40.17
2022-08-03T10:03:32.107Z,40.45
2022-08-03T10:06:15.166Z,41.15
2022-08-03T10:08:43.873Z,40.72
2022-08-03T10:11:12.661Z,41.53
2022-08-03T10:13:41.221Z,41.30
2022-08-03T10:16:23.901Z,41.33
2022-08-03T10:18:54.018Z,41.20
2022-08-03T10:21:23.081Z,41.47
2022-08-03T10:23:54.518Z,40.76
2022-08-03T10:26:27.176Z,41.41
2022-08-03T10:29:01.920Z,41.03
2022-08-03T10:31:54.467Z,41.60
2022-08-03T10:34:35.961Z,41.76
2022-08-03T10:37:10.610Z,41.67
2022-08-03T10:39:53.976Z,41.87
2022-08-03T10:42:26.419Z,41.68
2022-08-03T10:45:04.976Z,41.84
2022-08-03T10:47:35.145Z,41.22
2022-08-03T10:50:04.979Z,41.04
2022-08-03T10:52:39.657Z,41.11
2022-08-03T10:55:53.386Z,42.31
2022-08-03T10:58:53.396Z,41.97
2022-08-03T11:02:00.890Z,42.79
2022-08-03T11:04:30.868Z,42.24
2022-08-03T11:07:22.440Z,42.62
2022-08-03T11:09:55.512Z,41.97
2022-08-03T11:12:32.620Z,43.13
2022-08-03T11:15:04.888Z,42.06
2022-08-03T11:17:46.788Z,42.17
2022-08-03T11:21:04.318Z,42.23
2022-08-03T11:24:04.714Z,42.73
2022-08-03T11:26:35.527Z,42.26
2022-08-03T11:29:30.085Z,42.60
2022-08-03T11:31:58.894Z,42.38
2022-08-03T11:34:27.701Z,42.95
2022-08-03T11:37:28.736Z,42.06
2022-08-03T11:40:00.298Z,42.58
2022-08-03T11:42:39.618Z,42.17
2022-08-03T11:45:09.766Z,42.67
2022-08-03T11:47:50.764Z,43.06
2022-08-03T11:50:22.041Z,42.20
2022-08-03T11:52:51.100Z,43.30
2022-08-03T11:55:22.555Z,43.11
2022-08-03T11:59:10.816Z,43.42
2022-08-03T12:00:40.531Z,44.33
2022-08-03T12:03:12.525Z,43.81
2022-08-03T12:05:51.030Z,44.03
2022-08-03T12:08:33.405Z,44.57
2022-08-03T12:11:06.364Z,44.22
2022-08-03T12:14:28.864Z,44.80
2022-08-03T12:16:40.836Z,44.32
2022-08-03T12:19:09.240Z,44.50
2022-08-03T12:21:56.989Z,44.42
2022-08-03T12:24:29.184Z,44.21
2022-08-03T12:27:00.036Z,43.67
2022-08-03T12:29:29.321Z,44.22
2022-08-03T12:31:58.047Z,44.21
2022-08-03T12:34:47.734Z,44.22
2022-08-03T12:37:22.462Z,44.98
2022-08-03T12:40:01.606Z,45.48
2022-08-03T12:42:38.991Z,44.49
2022-08-03T12:45:26.991Z,45.13
2022-08-03T12:48:00.667Z,45.70
2022-08-03T12:50:32.199Z,45.02
2022-08-03T12:53:08.877Z,45.60
2022-08-03T12:55:57.386Z,44.72
2022-08-03T12:58:48.686Z,45.83
2022-08-03T13:01:17.942Z,46.13
2022-08-03T13:03:52.916Z,46.08
2022-08-03T13:06:26.191Z,45.74
2022-08-03T13:09:08.185Z,46.46
2022-08-03T13:11:57.375Z,46.38
2022-08-03T13:14:25.680Z,46.71
2022-08-03T13:16:55.233Z,47.05
2022-08-03T13:19:24.226Z,46.79
2022-08-03T13:22:04.339Z,47.92
2022-08-03T13:24:34.361Z,47.71
2022-08-03T13:28:01.958Z,48.34
2022-08-03T13:29:53.695Z,48.09
2022-08-03T13:32:23.121Z,47.89
2022-08-03T13:34:51.622Z,48.25
2022-08-03T13:37:21.020Z,48.31
2022-08-03T13:39:59.423Z,48.14
2022-08-03T13:42:30.820Z,48.69
2022-08-03T13:45:01.018Z,48.40
2022-08-03T13:47:30.090Z,48.70
2022-08-03T13:50:00.785Z,48.96
2022-08-03T13:52:45.433Z,49.16
2022-08-03T13:58:03.905Z,49.51
2022-08-03T14:00:31.033Z,49.32
2022-08-03T14:03:07.976Z,49.52
2022-08-03T14:05:43.781Z,49.82
2022-08-03T14:08:12.844Z,50.16
2022-08-03T14:10:45.734Z,50.38
2022-08-03T14:13:17.785Z,50.04
2022-08-03T14:17:50.125Z,50.96
2022-08-03T14:20:33.876Z,51.34
2022-08-03T14:23:08.175Z,51.39
2022-08-03T14:25:43.187Z,51.80
2022-08-03T14:28:19.995Z,51.89
2022-08-03T14:30:49.163Z,52.46
2022-08-03T14:33:18.001Z,52.74
2022-08-03T14:35:46.868Z,52.91
2022-08-03T14:38:16.555Z,53.36
2022-08-03T14:40:45.537Z,53.36
2022-08-03T14:43:14.558Z,53.13
2022-08-03T14:45:43.435Z,53.24
2022-08-03T14:50:28.837Z,53.72
2022-08-03T14:51:01.957Z,54.21
2022-08-03T14:53:30.976Z,54.33
2022-08-03T14:56:00.126Z,54.90
2022-08-03T14:58:31.653Z,55.26
2022-08-03T15:01:01.335Z,55.19
2022-08-03T15:03:30.628Z,56.05
2022-08-03T15:06:00.368Z,56.19
2022-08-03T15:08:29.328Z,57.27
2022-08-03T15:10:57.895Z,56.98
2022-08-03T15:13:27.657Z,57.04
2022-08-03T15:15:58.455Z,58.71
2022-08-03T15:18:27.119Z,58.70
2022-08-03T15:20:55.875Z,59.75
2022-08-03T15:23:24.716Z,59.54
2022-08-03T15:26:31.813Z,60.31
2022-08-03T15:28:42.104Z,60.63
2022-08-03T15:31:10.775Z,60.97
2022-08-03T15:33:47.597Z,61.22
2022-08-03T15:36:16.408Z,61.40
2022-08-03T15:38:45.747Z,61.88
2022-08-03T15:41:15.757Z,61.93
2022-08-03T15:43:47.645Z,62.47
2022-08-03T15:46:29.069Z,62.17
2022-08-03T15:48:58.314Z,62.73
2022-08-03T15:51:27.067Z,62.66
2022-08-03T15:53:57.055Z,63.15
2022-08-03T15:56:27.114Z,63.25
2022-08-03T15:59:03.571Z,63.19
2022-08-03T16:01:42.098Z,62.97
2022-08-03T16:04:11.134Z,64.21
2022-08-03T16:06:39.940Z,64.22
2022-08-03T16:09:24.305Z,64.45
2022-08-03T16:11:58.616Z,65.38
2022-08-03T16:14:32.121Z,64.87
2022-08-03T16:17:02.086Z,64.92
2022-08-03T16:19:30.783Z,65.56
2022-08-03T16:21:59.902Z,65.79
2022-08-03T16:24:29.447Z,66.19
2022-08-03T16:27:01.087Z,66.02
2022-08-03T16:29:30.404Z,66.49
2022-08-03T16:31:58.895Z,66.68
2022-08-03T16:34:27.668Z,66.83
2022-08-03T16:36:56.913Z,66.64
2022-08-03T16:39:25.712Z,67.13
2022-08-03T16:42:01.308Z,66.74
2022-08-03T16:44:31.971Z,66.68
2022-08-03T16:47:00.921Z,66.90
2022-08-03T16:49:53.838Z,67.89
2022-08-03T16:52:18.787Z,67.42
2022-08-03T16:54:50.541Z,67.35
2022-08-03T16:57:56.446Z,67.83
2022-08-03T17:00:33.257Z,67.89
2022-08-03T17:03:12.429Z,67.77
2022-08-03T17:05:49.555Z,68.88
2022-08-03T17:08:26.225Z,68.59
2022-08-03T17:10:56.985Z,68.53
2022-08-03T17:13:38.751Z,68.72
2022-08-03T17:16:11.091Z,68.36
2022-08-03T17:18:47.689Z,68.66
2022-08-03T17:21:18.547Z,68.72
2022-08-03T17:23:56.382Z,68.81
2022-08-03T17:26:30.472Z,68.87
2022-08-03T17:29:11.153Z,69.03
2022-08-03T17:31:49.711Z,70.20
2022-08-03T17:34:20.456Z,70.41
2022-08-03T17:37:27.208Z,69.99
2022-08-03T17:39:58.055Z,70.32
2022-08-03T17:42:33.022Z,70.44
2022-08-03T17:45:06.480Z,71.10
2022-08-03T17:47:41.987Z,70.54
2022-08-03T17:50:24.806Z,70.78
2022-08-03T17:53:23.935Z,70.51
2022-08-03T17:56:45.330Z,70.41
2022-08-03T17:59:15.676Z,70.18
2022-08-03T18:02:36.023Z,70.17
2022-08-03T18:05:16.361Z,70.84
2022-08-03T18:07:59.382Z,71.16
2022-08-03T18:10:50.217Z,71.38
2022-08-03T18:13:30.347Z,71.47
2022-08-03T18:16:07.716Z,70.99
2022-08-03T18:18:43.252Z,70.87
2022-08-03T18:21:16.729Z,70.90
2022-08-03T18:23:50.145Z,71.25
2022-08-03T18:26:21.367Z,71.49
2022-08-03T18:28:57.075Z,71.50
2022-08-03T18:31:33.221Z,72.71
2022-08-03T18:37:09.736Z,72.55
2022-08-03T18:39:49.832Z,72.81
2022-08-03T18:42:24.060Z,73.17
2022-08-03T18:44:59.652Z,72.92
2022-08-03T18:47:58.096Z,72.58
2022-08-03T18:50:56.748Z,73.05
2022-08-03T18:54:03.075Z,73.26
2022-08-03T18:56:49.137Z,73.07
2022-08-03T18:59:30.075Z,73.27
2022-08-03T19:02:18.145Z,72.94
2022-08-03T19:04:49.077Z,73.92
2022-08-03T19:07:25.406Z,73.53
2022-08-03T19:09:59.547Z,73.81
2022-08-03T19:12:53.290Z,73.39
2022-08-03T19:15:36.712Z,73.80
2022-08-03T19:18:16.967Z,74.75
2022-08-03T19:20:47.069Z,74.08
2022-08-03T19:23:17.016Z,74.07
2022-08-03T19:25:48.407Z,73.67
2022-08-03T19:28:19.316Z,74.39
2022-08-03T19:31:02.809Z,73.94
2022-08-03T19:33:55.897Z,74.10
2022-08-03T19:36:29.355Z,73.95
2022-08-03T19:38:58.890Z,74.38
2022-08-03T19:41:42.336Z,74.82
2022-08-03T19:44:20.404Z,74.77
2022-08-03T19:46:55.079Z,75.18
2022-08-03T19:50:06.201Z,74.63
2022-08-03T19:52:24.167Z,74.92
2022-08-03T19:54:57.395Z,75.25
2022-08-03T19:57:30.326Z,74.66
2022-08-03T20:00:03.389Z,75.22
2022-08-03T20:02:35.070Z,75.47
2022-08-03T20:05:04.097Z,75.62
2022-08-03T20:07:33.557Z,75.17
2022-08-03T20:10:05.136Z,74.41
2022-08-03T20:12:39.343Z,74.81
2022-08-03T20:15:09.795Z,74.98
2022-08-03T20:17:55.075Z,74.92
2022-08-03T20:20:33.908Z,74.71
2022-08-03T20:23:08.192Z,74.81
2022-08-03T20:25:48.686Z,74.94
2022-08-03T20:28:30.255Z,74.92
2022-08-03T20:30:59.928Z,75.40
2022-08-03T20:33:46.461Z,75.31
2022-08-03T20:36:18.975Z,75.55
2022-08-03T20:38:51.972Z,75.28
2022-08-03T20:41:21.158Z,75.97
2022-08-03T20:43:51.062Z,75.56
2022-08-03T20:46:32.789Z,75.90
2022-08-03T20:49:07.976Z,76.58
2022-08-03T20:51:49.157Z,76.93
2022-08-03T20:54:31.290Z,77.30
2022-08-03T20:57:03.633Z,76.94
2022-08-03T21:02:30.037Z,76.13
2022-08-03T21:05:14.728Z,76.31
2022-08-03T21:08:06.487Z,76.17
2022-08-03T21:10:38.356Z,76.69
2022-08-03T21:12:58.522Z,72.59
2022-08-03T21:13:12.617Z,76.20
2022-08-03T21:16:02.484Z,76.71
2022-08-03T21:18:47.095Z,76.79
2022-08-03T21:21:19.233Z,77.06
2022-08-03T21:23:54.575Z,76.84
2022-08-03T21:26:26.600Z,77.79
2022-08-03T21:29:30.468Z,77.94
2022-08-03T21:32:00.282Z,78.34
2022-08-03T21:34:28.856Z,77.85
2022-08-03T21:36:57.866Z,78.76
2022-08-03T21:39:26.695Z,78.40
2022-08-03T21:41:57.875Z,77.70
2022-08-03T21:44:29.244Z,77.01
2022-08-03T21:46:59.956Z,77.29
2022-08-03T21:50:04.616Z,77.63
2022-08-03T21:52:23.096Z,77.91
2022-08-03T21:54:54.937Z,77.49
2022-08-03T21:57:26.296Z,76.72
2022-08-03T22:00:03.165Z,76.54
2022-08-03T22:02:53.128Z,77.58
2022-08-03T22:05:29.057Z,77.48
2022-08-03T22:08:14.032Z,78.04
2022-08-03T22:10:45.590Z,77.82
2022-08-03T22:13:20.604Z,78.61
2022-08-03T22:16:06.458Z,79.03
2022-08-03T22:18:40.069Z,78.76
2022-08-03T22:21:11.010Z,79.18
2022-08-03T22:23:49.449Z,79.57
2022-08-03T22:26:40.630Z,78.37
2022-08-03T22:29:09.425Z,79.11
2022-08-03T22:31:58.500Z,79.47
2022-08-03T22:34:29.452Z,79.92
2022-08-03T22:37:03.290Z,80.40
2022-08-03T22:39:32.077Z,80.34
2022-08-03T22:42:01.188Z,80.39
2022-08-03T22:44:30.510Z,80.62
2022-08-03T22:46:59.467Z,80.91
2022-08-03T22:49:29.985Z,80.80
2022-08-03T22:51:59.259Z,80.79
2022-08-03T22:54:28.776Z,80.96
2022-08-03T22:56:59.571Z,80.25
2022-08-03T22:59:40.011Z,80.23
2022-08-03T23:02:20.480Z,80.23
2022-08-03T23:04:56.652Z,80.29
2022-08-03T23:07:39.259Z,80.67
2022-08-03T23:10:11.955Z,80.64
2022-08-03T23:12:42.190Z,80.68
2022-08-03T23:15:14.074Z,79.85
2022-08-03T23:17:58.091Z,79.79
2022-08-03T23:20:28.973Z,81.10
2022-08-03T23:23:00.980Z,80.90
2022-08-03T23:25:30.243Z,80.54
2022-08-03T23:28:05.052Z,80.07
2022-08-03T23:30:38.282Z,80.10
2022-08-03T23:33:09.172Z,80.09
2022-08-03T23:36:22.619Z,80.45
2022-08-03T23:38:45.869Z,80.43
2022-08-03T23:41:16.060Z,79.52
2022-08-03T23:43:51.827Z,77.97
2022-08-03T23:46:23.614Z,75.60
2022-08-03T23:48:53.793Z,73.63
2022-08-03T23:51:50.905Z,72.73
2022-08-03T23:54:47.016Z,71.49
2022-08-03T23:57:38.877Z,73.10
